sensor_id;sensor_type;location;lat;lon;timestamp;P1;durP1;ratioP1;P2;durP2;ratioP2
20142;SDS011;10509;46.476;7.134;2023-05-20T00:00:53;8.43;;;7.83;;
20142;SDS011;10509;46.476;7.134;2023-05-20T00:03:19;8.37;;;7.43;;
20142;SDS011;10509;46.476;7.134;2023-05-20T00:05:46;8.03;;;7.53;;
20142;SDS011;10509;46.476;7.134;2023-05-20T00:08:12;8.13;;;7.63;;
20142;SDS011;10509;46.476;7.134;2023-05-20T00:10:38;8.87;;;8.20;;
20142;SDS011;10509;46.476;7.134;2023-05-20T00:13:05;7.47;;;6.97;;
20142;SDS011;10509;46.476;7.134;2023-05-20T00:15:31;7.37;;;6.87;;
20142;SDS011;10509;46.476;7.134;2023-05-20T00:17:59;8.10;;;7.43;;
20142;SDS011;10509;46.476;7.134;2023-05-20T00:20:25;6.77;;;6.37;;
20142;SDS011;10509;46.476;7.134;2023-05-20T00:22:51;6.80;;;6.30;;
20142;SDS011;10509;46.476;7.134;2023-05-20T00:25:17;6.80;;;6.40;;
20142;SDS011;10509;46.476;7.134;2023-05-20T00:27:43;7.53;;;6.97;;
20142;SDS011;10509;46.476;7.134;2023-05-20T00:30:10;7.80;;;7.10;;
20142;SDS011;10509;46.476;7.134;2023-05-20T00:32:36;7.50;;;7.10;;
20142;SDS011;10509;46.476;7.134;2023-05-20T00:35:02;7.80;;;7.30;;
20142;SDS011;10509;46.476;7.134;2023-05-20T00:37:29;7.60;;;7.10;;
20142;SDS011;10509;46.476;7.134;2023-05-20T00:39:55;7.40;;;6.77;;
20142;SDS011;10509;46.476;7.134;2023-05-20T00:42:21;7.60;;;7.00;;
20142;SDS011;10509;46.476;7.134;2023-05-20T00:44:47;8.33;;;7.73;;
20142;SDS011;10509;46.476;7.134;2023-05-20T00:47:17;8.57;;;8.07;;
20142;SDS011;10509;46.476;7.134;2023-05-20T00:49:43;7.60;;;7.17;;
20142;SDS011;10509;46.476;7.134;2023-05-20T00:52:09;7.40;;;6.90;;
20142;SDS011;10509;46.476;7.134;2023-05-20T00:54:35;7.73;;;7.23;;
20142;SDS011;10509;46.476;7.134;2023-05-20T00:57:02;7.93;;;7.37;;
20142;SDS011;10509;46.476;7.134;2023-05-20T00:59:30;7.97;;;7.47;;
20142;SDS011;10509;46.476;7.134;2023-05-20T01:01:56;8.33;;;7.83;;
20142;SDS011;10509;46.476;7.134;2023-05-20T01:04:22;7.50;;;7.00;;
20142;SDS011;10509;46.476;7.134;2023-05-20T01:06:49;7.90;;;7.40;;
20142;SDS011;10509;46.476;7.134;2023-05-20T01:09:15;7.33;;;6.93;;
20142;SDS011;10509;46.476;7.134;2023-05-20T01:11:43;8.00;;;7.43;;
20142;SDS011;10509;46.476;7.134;2023-05-20T01:14:12;8.00;;;7.40;;
20142;SDS011;10509;46.476;7.134;2023-05-20T01:16:40;7.43;;;6.93;;
20142;SDS011;10509;46.476;7.134;2023-05-20T01:19:14;7.47;;;7.03;;
20142;SDS011;10509;46.476;7.134;2023-05-20T01:21:43;7.30;;;6.80;;
20142;SDS011;10509;46.476;7.134;2023-05-20T01:24:09;7.73;;;7.13;;
20142;SDS011;10509;46.476;7.134;2023-05-20T01:26:36;6.80;;;6.30;;
20142;SDS011;10509;46.476;7.134;2023-05-20T01:29:02;7.57;;;7.17;;
20142;SDS011;10509;46.476;7.134;2023-05-20T01:31:30;8.67;;;8.03;;
20142;SDS011;10509;46.476;7.134;2023-05-20T01:33:57;8.07;;;7.50;;
20142;SDS011;10509;46.476;7.134;2023-05-20T01:36:23;8.30;;;7.70;;
20142;SDS011;10509;46.476;7.134;2023-05-20T01:38:51;8.90;;;8.30;;
20142;SDS011;10509;46.476;7.134;2023-05-20T01:41:18;8.03;;;7.43;;
20142;SDS011;10509;46.476;7.134;2023-05-20T01:43:44;8.10;;;7.60;;
20142;SDS011;10509;46.476;7.134;2023-05-20T01:46:10;8.30;;;7.70;;
20142;SDS011;10509;46.476;7.134;2023-05-20T01:48:37;7.43;;;6.93;;
20142;SDS011;10509;46.476;7.134;2023-05-20T01:51:03;7.63;;;7.13;;
20142;SDS011;10509;46.476;7.134;2023-05-20T01:53:29;7.30;;;6.80;;
20142;SDS011;10509;46.476;7.134;2023-05-20T01:55:55;7.03;;;6.63;;
20142;SDS011;10509;46.476;7.134;2023-05-20T01:58:21;7.20;;;6.70;;
20142;SDS011;10509;46.476;7.134;2023-05-20T02:00:47;7.27;;;6.77;;
20142;SDS011;10509;46.476;7.134;2023-05-20T02:03:13;7.17;;;6.77;;
20142;SDS011;10509;46.476;7.134;2023-05-20T02:05:39;7.20;;;6.70;;
20142;SDS011;10509;46.476;7.134;2023-05-20T02:08:05;6.73;;;6.33;;
20142;SDS011;10509;46.476;7.134;2023-05-20T02:10:31;7.17;;;6.67;;
20142;SDS011;10509;46.476;7.134;2023-05-20T02:12:57;7.07;;;6.57;;
20142;SDS011;10509;46.476;7.134;2023-05-20T02:15:23;6.87;;;6.47;;
20142;SDS011;10509;46.476;7.134;2023-05-20T02:17:49;7.80;;;7.30;;
20142;SDS011;10509;46.476;7.134;2023-05-20T02:20:15;7.00;;;6.60;;
20142;SDS011;10509;46.476;7.134;2023-05-20T02:22:42;7.30;;;6.80;;
20142;SDS011;10509;46.476;7.134;2023-05-20T02:25:08;7.53;;;6.83;;
20142;SDS011;10509;46.476;7.134;2023-05-20T02:27:34;7.10;;;6.70;;
20142;SDS011;10509;46.476;7.134;2023-05-20T02:30:00;6.47;;;6.07;;
20142;SDS011;10509;46.476;7.134;2023-05-20T02:32:26;7.00;;;6.50;;
20142;SDS011;10509;46.476;7.134;2023-05-20T02:34:53;11.67;;;7.07;;
20142;SDS011;10509;46.476;7.134;2023-05-20T02:37:19;7.23;;;6.70;;
20142;SDS011;10509;46.476;7.134;2023-05-20T02:39:45;7.33;;;6.73;;
20142;SDS011;10509;46.476;7.134;2023-05-20T02:42:11;7.33;;;6.83;;
20142;SDS011;10509;46.476;7.134;2023-05-20T02:44:37;6.90;;;6.50;;
20142;SDS011;10509;46.476;7.134;2023-05-20T02:47:03;6.87;;;6.33;;
20142;SDS011;10509;46.476;7.134;2023-05-20T02:49:30;7.60;;;7.07;;
20142;SDS011;10509;46.476;7.134;2023-05-20T02:51:56;7.10;;;6.60;;
20142;SDS011;10509;46.476;7.134;2023-05-20T02:54:22;7.43;;;6.70;;
20142;SDS011;10509;46.476;7.134;2023-05-20T02:56:48;7.63;;;7.13;;
20142;SDS011;10509;46.476;7.134;2023-05-20T02:59:14;10.43;;;6.70;;
20142;SDS011;10509;46.476;7.134;2023-05-20T03:01:40;7.63;;;7.03;;
20142;SDS011;10509;46.476;7.134;2023-05-20T03:04:06;7.40;;;6.80;;
20142;SDS011;10509;46.476;7.134;2023-05-20T03:06:32;7.13;;;6.63;;
20142;SDS011;10509;46.476;7.134;2023-05-20T03:08:58;8.30;;;7.50;;
20142;SDS011;10509;46.476;7.134;2023-05-20T03:11:25;7.40;;;6.90;;
20142;SDS011;10509;46.476;7.134;2023-05-20T03:13:51;7.53;;;7.07;;
20142;SDS011;10509;46.476;7.134;2023-05-20T03:16:17;8.00;;;7.47;;
20142;SDS011;10509;46.476;7.134;2023-05-20T03:18:43;7.23;;;6.63;;
20142;SDS011;10509;46.476;7.134;2023-05-20T03:21:10;6.87;;;6.47;;
20142;SDS011;10509;46.476;7.134;2023-05-20T03:23:36;8.60;;;8.00;;
20142;SDS011;10509;46.476;7.134;2023-05-20T03:26:02;7.90;;;7.40;;
20142;SDS011;10509;46.476;7.134;2023-05-20T03:28:28;7.97;;;7.43;;
20142;SDS011;10509;46.476;7.134;2023-05-20T03:30:54;7.60;;;7.10;;
20142;SDS011;10509;46.476;7.134;2023-05-20T03:33:20;7.13;;;6.73;;
20142;SDS011;10509;46.476;7.134;2023-05-20T03:35:50;7.27;;;6.83;;
20142;SDS011;10509;46.476;7.134;2023-05-20T03:38:16;7.10;;;6.60;;
20142;SDS011;10509;46.476;7.134;2023-05-20T03:40:42;5.97;;;5.57;;
20142;SDS011;10509;46.476;7.134;2023-05-20T03:43:08;6.30;;;5.87;;
20142;SDS011;10509;46.476;7.134;2023-05-20T03:45:34;6.37;;;5.97;;
20142;SDS011;10509;46.476;7.134;2023-05-20T03:48:00;6.77;;;6.37;;
20142;SDS011;10509;46.476;7.134;2023-05-20T03:50:27;7.60;;;7.03;;
20142;SDS011;10509;46.476;7.134;2023-05-20T03:52:55;7.70;;;7.00;;
20142;SDS011;10509;46.476;7.134;2023-05-20T03:55:21;6.97;;;6.57;;
20142;SDS011;10509;46.476;7.134;2023-05-20T03:57:47;6.57;;;6.10;;
20142;SDS011;10509;46.476;7.134;2023-05-20T04:00:13;7.37;;;6.83;;
20142;SDS011;10509;46.476;7.134;2023-05-20T04:02:40;7.53;;;7.03;;
20142;SDS011;10509;46.476;7.134;2023-05-20T04:05:06;9.50;;;7.23;;
20142;SDS011;10509;46.476;7.134;2023-05-20T04:07:34;7.13;;;6.60;;
20142;SDS011;10509;46.476;7.134;2023-05-20T04:10:00;6.37;;;5.80;;
20142;SDS011;10509;46.476;7.134;2023-05-20T04:12:26;6.87;;;6.43;;
20142;SDS011;10509;46.476;7.134;2023-05-20T04:14:56;6.73;;;6.20;;
20142;SDS011;10509;46.476;7.134;2023-05-20T04:17:22;6.97;;;6.57;;
20142;SDS011;10509;46.476;7.134;2023-05-20T04:19:48;8.33;;;6.60;;
20142;SDS011;10509;46.476;7.134;2023-05-20T04:22:15;7.23;;;6.83;;
20142;SDS011;10509;46.476;7.134;2023-05-20T04:24:41;7.53;;;6.93;;
20142;SDS011;10509;46.476;7.134;2023-05-20T04:27:07;7.37;;;6.87;;
20142;SDS011;10509;46.476;7.134;2023-05-20T04:29:33;7.80;;;7.23;;
20142;SDS011;10509;46.476;7.134;2023-05-20T04:31:59;7.13;;;6.63;;
20142;SDS011;10509;46.476;7.134;2023-05-20T04:34:28;7.93;;;7.33;;
20142;SDS011;10509;46.476;7.134;2023-05-20T04:36:54;10.03;;;8.07;;
20142;SDS011;10509;46.476;7.134;2023-05-20T04:39:21;7.57;;;6.90;;
20142;SDS011;10509;46.476;7.134;2023-05-20T04:41:47;7.83;;;7.17;;
20142;SDS011;10509;46.476;7.134;2023-05-20T04:44:14;7.30;;;6.80;;
20142;SDS011;10509;46.476;7.134;2023-05-20T04:46:40;5.83;;;5.40;;
20142;SDS011;10509;46.476;7.134;2023-05-20T04:49:06;6.63;;;6.20;;
20142;SDS011;10509;46.476;7.134;2023-05-20T04:51:32;7.00;;;6.50;;
20142;SDS011;10509;46.476;7.134;2023-05-20T04:53:59;7.20;;;6.70;;
20142;SDS011;10509;46.476;7.134;2023-05-20T04:56:25;6.33;;;5.93;;
20142;SDS011;10509;46.476;7.134;2023-05-20T04:58:51;11.83;;;7.40;;
20142;SDS011;10509;46.476;7.134;2023-05-20T05:01:17;7.30;;;6.60;;
20142;SDS011;10509;46.476;7.134;2023-05-20T05:03:43;7.37;;;6.57;;
20142;SDS011;10509;46.476;7.134;2023-05-20T05:06:09;7.90;;;7.20;;
20142;SDS011;10509;46.476;7.134;2023-05-20T05:08:35;7.20;;;6.50;;
20142;SDS011;10509;46.476;7.134;2023-05-20T05:11:03;7.73;;;7.13;;
20142;SDS011;10509;46.476;7.134;2023-05-20T05:13:30;7.23;;;6.73;;
20142;SDS011;10509;46.476;7.134;2023-05-20T05:15:56;9.13;;;6.37;;
20142;SDS011;10509;46.476;7.134;2023-05-20T05:18:22;7.30;;;6.70;;
20142;SDS011;10509;46.476;7.134;2023-05-20T05:20:48;7.30;;;6.80;;
20142;SDS011;10509;46.476;7.134;2023-05-20T05:23:14;7.03;;;6.33;;
20142;SDS011;10509;46.476;7.134;2023-05-20T05:25:40;6.13;;;5.60;;
20142;SDS011;10509;46.476;7.134;2023-05-20T05:28:07;6.30;;;5.80;;
20142;SDS011;10509;46.476;7.134;2023-05-20T05:30:33;6.10;;;5.70;;
20142;SDS011;10509;46.476;7.134;2023-05-20T05:32:59;8.57;;;6.17;;
20142;SDS011;10509;46.476;7.134;2023-05-20T05:35:25;6.67;;;6.17;;
20142;SDS011;10509;46.476;7.134;2023-05-20T05:37:51;10.23;;;6.47;;
20142;SDS011;10509;46.476;7.134;2023-05-20T05:40:17;5.67;;;5.27;;
20142;SDS011;10509;46.476;7.134;2023-05-20T05:42:43;5.87;;;5.20;;
20142;SDS011;10509;46.476;7.134;2023-05-20T05:45:09;5.33;;;4.83;;
20142;SDS011;10509;46.476;7.134;2023-05-20T05:47:35;6.93;;;4.80;;
20142;SDS011;10509;46.476;7.134;2023-05-20T05:50:01;5.30;;;4.80;;
20142;SDS011;10509;46.476;7.134;2023-05-20T05:52:27;4.40;;;4.10;;
20142;SDS011;10509;46.476;7.134;2023-05-20T05:54:53;4.27;;;3.97;;
20142;SDS011;10509;46.476;7.134;2023-05-20T05:57:19;6.77;;;4.73;;
20142;SDS011;10509;46.476;7.134;2023-05-20T05:59:45;4.77;;;4.37;;
20142;SDS011;10509;46.476;7.134;2023-05-20T06:02:11;4.40;;;4.10;;
20142;SDS011;10509;46.476;7.134;2023-05-20T06:04:38;4.33;;;4.03;;
20142;SDS011;10509;46.476;7.134;2023-05-20T06:07:05;4.77;;;4.47;;
20142;SDS011;10509;46.476;7.134;2023-05-20T06:09:31;4.60;;;4.30;;
20142;SDS011;10509;46.476;7.134;2023-05-20T06:11:57;4.10;;;3.80;;
20142;SDS011;10509;46.476;7.134;2023-05-20T06:14:23;4.80;;;4.50;;
20142;SDS011;10509;46.476;7.134;2023-05-20T06:16:49;4.63;;;4.23;;
20142;SDS011;10509;46.476;7.134;2023-05-20T06:19:15;4.90;;;4.50;;
20142;SDS011;10509;46.476;7.134;2023-05-20T06:21:41;4.70;;;4.40;;
20142;SDS011;10509;46.476;7.134;2023-05-20T06:24:07;4.30;;;4.10;;
20142;SDS011;10509;46.476;7.134;2023-05-20T06:26:33;4.90;;;4.50;;
20142;SDS011;10509;46.476;7.134;2023-05-20T06:28:59;5.10;;;4.70;;
20142;SDS011;10509;46.476;7.134;2023-05-20T06:31:25;4.90;;;4.60;;
20142;SDS011;10509;46.476;7.134;2023-05-20T06:33:51;4.90;;;4.60;;
20142;SDS011;10509;46.476;7.134;2023-05-20T06:36:17;4.57;;;4.27;;
20142;SDS011;10509;46.476;7.134;2023-05-20T06:38:43;5.03;;;4.63;;
20142;SDS011;10509;46.476;7.134;2023-05-20T06:41:09;5.00;;;4.60;;
20142;SDS011;10509;46.476;7.134;2023-05-20T06:43:35;4.60;;;4.30;;
20142;SDS011;10509;46.476;7.134;2023-05-20T06:46:02;7.10;;;4.47;;
20142;SDS011;10509;46.476;7.134;2023-05-20T06:48:28;4.43;;;4.13;;
20142;SDS011;10509;46.476;7.134;2023-05-20T06:50:54;4.73;;;3.53;;
20142;SDS011;10509;46.476;7.134;2023-05-20T06:53:20;3.90;;;3.60;;
20142;SDS011;10509;46.476;7.134;2023-05-20T06:55:46;3.67;;;3.47;;
20142;SDS011;10509;46.476;7.134;2023-05-20T06:58:12;4.13;;;3.73;;
20142;SDS011;10509;46.476;7.134;2023-05-20T07:00:39;3.13;;;2.93;;
20142;SDS011;10509;46.476;7.134;2023-05-20T07:03:05;3.60;;;3.30;;
20142;SDS011;10509;46.476;7.134;2023-05-20T07:05:31;18.67;;;4.57;;
20142;SDS011;10509;46.476;7.134;2023-05-20T07:07:57;9.67;;;4.13;;
20142;SDS011;10509;46.476;7.134;2023-05-20T07:10:23;8.50;;;3.83;;
20142;SDS011;10509;46.476;7.134;2023-05-20T07:12:49;4.07;;;3.20;;
20142;SDS011;10509;46.476;7.134;2023-05-20T07:15:15;4.00;;;3.37;;
20142;SDS011;10509;46.476;7.134;2023-05-20T07:17:41;3.23;;;3.03;;
20142;SDS011;10509;46.476;7.134;2023-05-20T07:20:08;2.83;;;2.63;;
20142;SDS011;10509;46.476;7.134;2023-05-20T07:22:34;3.30;;;3.10;;
20142;SDS011;10509;46.476;7.134;2023-05-20T07:25:00;3.13;;;2.83;;
20142;SDS011;10509;46.476;7.134;2023-05-20T07:27:27;3.03;;;2.73;;
20142;SDS011;10509;46.476;7.134;2023-05-20T07:29:53;6.13;;;3.07;;
20142;SDS011;10509;46.476;7.134;2023-05-20T07:32:19;3.83;;;2.70;;
20142;SDS011;10509;46.476;7.134;2023-05-20T07:34:45;5.77;;;3.10;;
20142;SDS011;10509;46.476;7.134;2023-05-20T07:37:11;3.00;;;2.70;;
20142;SDS011;10509;46.476;7.134;2023-05-20T07:39:37;3.17;;;2.97;;
20142;SDS011;10509;46.476;7.134;2023-05-20T07:42:03;4.13;;;3.73;;
20142;SDS011;10509;46.476;7.134;2023-05-20T07:44:29;5.00;;;3.83;;
20142;SDS011;10509;46.476;7.134;2023-05-20T07:46:55;2.70;;;2.50;;
20142;SDS011;10509;46.476;7.134;2023-05-20T07:49:21;2.63;;;2.43;;
20142;SDS011;10509;46.476;7.134;2023-05-20T07:51:47;3.10;;;2.50;;
20142;SDS011;10509;46.476;7.134;2023-05-20T07:54:13;2.70;;;2.50;;
20142;SDS011;10509;46.476;7.134;2023-05-20T07:56:39;2.83;;;2.63;;
20142;SDS011;10509;46.476;7.134;2023-05-20T07:59:05;3.67;;;2.67;;
20142;SDS011;10509;46.476;7.134;2023-05-20T08:01:31;4.27;;;2.50;;
20142;SDS011;10509;46.476;7.134;2023-05-20T08:03:57;2.83;;;2.63;;
20142;SDS011;10509;46.476;7.134;2023-05-20T08:06:23;2.83;;;2.57;;
20142;SDS011;10509;46.476;7.134;2023-05-20T08:08:49;6.13;;;3.03;;
20142;SDS011;10509;46.476;7.134;2023-05-20T08:11:18;5.23;;;2.53;;
20142;SDS011;10509;46.476;7.134;2023-05-20T08:13:45;2.70;;;2.50;;
20142;SDS011;10509;46.476;7.134;2023-05-20T08:16:11;2.53;;;2.17;;
20142;SDS011;10509;46.476;7.134;2023-05-20T08:18:38;2.47;;;2.27;;
20142;SDS011;10509;46.476;7.134;2023-05-20T08:21:04;5.63;;;2.37;;
20142;SDS011;10509;46.476;7.134;2023-05-20T08:23:32;2.40;;;2.27;;
20142;SDS011;10509;46.476;7.134;2023-05-20T08:25:58;2.50;;;2.30;;
20142;SDS011;10509;46.476;7.134;2023-05-20T08:28:26;2.27;;;1.80;;
20142;SDS011;10509;46.476;7.134;2023-05-20T08:30:52;4.53;;;1.80;;
20142;SDS011;10509;46.476;7.134;2023-05-20T08:33:18;2.03;;;1.80;;
20142;SDS011;10509;46.476;7.134;2023-05-20T08:35:46;1.70;;;1.60;;
20142;SDS011;10509;46.476;7.134;2023-05-20T08:38:12;1.93;;;1.70;;
20142;SDS011;10509;46.476;7.134;2023-05-20T08:40:39;2.00;;;1.67;;
20142;SDS011;10509;46.476;7.134;2023-05-20T08:43:05;1.33;;;1.23;;
20142;SDS011;10509;46.476;7.134;2023-05-20T08:45:32;1.70;;;1.00;;
20142;SDS011;10509;46.476;7.134;2023-05-20T08:47:58;1.73;;;0.90;;
20142;SDS011;10509;46.476;7.134;2023-05-20T08:50:25;1.37;;;1.20;;
20142;SDS011;10509;46.476;7.134;2023-05-20T08:52:51;1.47;;;1.20;;
20142;SDS011;10509;46.476;7.134;2023-05-20T08:55:19;1.20;;;1.10;;
20142;SDS011;10509;46.476;7.134;2023-05-20T08:57:51;1.50;;;1.40;;
20142;SDS011;10509;46.476;7.134;2023-05-20T09:00:19;1.47;;;1.37;;
20142;SDS011;10509;46.476;7.134;2023-05-20T09:02:47;4.55;;;1.70;;
20142;SDS011;10509;46.476;7.134;2023-05-20T09:05:13;2.40;;;1.40;;
20142;SDS011;10509;46.476;7.134;2023-05-20T09:07:39;1.50;;;1.40;;
20142;SDS011;10509;46.476;7.134;2023-05-20T09:10:07;1.97;;;1.77;;
20142;SDS011;10509;46.476;7.134;2023-05-20T09:12:33;1.90;;;1.63;;
20142;SDS011;10509;46.476;7.134;2023-05-20T09:14:59;2.03;;;1.83;;
20142;SDS011;10509;46.476;7.134;2023-05-20T09:17:25;2.23;;;2.03;;
20142;SDS011;10509;46.476;7.134;2023-05-20T09:19:52;9.00;;;2.43;;
20142;SDS011;10509;46.476;7.134;2023-05-20T09:22:28;2.37;;;2.27;;
20142;SDS011;10509;46.476;7.134;2023-05-20T09:24:54;3.40;;;2.27;;
20142;SDS011;10509;46.476;7.134;2023-05-20T09:27:20;3.13;;;2.83;;
20142;SDS011;10509;46.476;7.134;2023-05-20T09:29:48;2.90;;;2.67;;
20142;SDS011;10509;46.476;7.134;2023-05-20T09:32:14;3.43;;;3.13;;
20142;SDS011;10509;46.476;7.134;2023-05-20T09:34:41;4.03;;;2.97;;
20142;SDS011;10509;46.476;7.134;2023-05-20T09:37:07;3.87;;;3.13;;
20142;SDS011;10509;46.476;7.134;2023-05-20T09:39:38;3.87;;;3.47;;
20142;SDS011;10509;46.476;7.134;2023-05-20T09:42:06;3.60;;;3.30;;
20142;SDS011;10509;46.476;7.134;2023-05-20T09:44:34;3.77;;;3.47;;
20142;SDS011;10509;46.476;7.134;2023-05-20T09:47:00;3.80;;;3.50;;
20142;SDS011;10509;46.476;7.134;2023-05-20T09:49:27;4.57;;;4.23;;
20142;SDS011;10509;46.476;7.134;2023-05-20T09:51:53;4.10;;;3.80;;
20142;SDS011;10509;46.476;7.134;2023-05-20T09:54:21;3.97;;;3.67;;
20142;SDS011;10509;46.476;7.134;2023-05-20T09:56:48;4.27;;;3.97;;
20142;SDS011;10509;46.476;7.134;2023-05-20T09:59:15;4.03;;;3.83;;
20142;SDS011;10509;46.476;7.134;2023-05-20T10:01:41;4.17;;;3.87;;
20142;SDS011;10509;46.476;7.134;2023-05-20T10:04:07;4.10;;;3.60;;
20142;SDS011;10509;46.476;7.134;2023-05-20T10:12:06;4.30;;;4.00;;
20142;SDS011;10509;46.476;7.134;2023-05-20T10:17:14;4.13;;;3.77;;
20142;SDS011;10509;46.476;7.134;2023-05-20T10:19:42;4.67;;;4.37;;
20142;SDS011;10509;46.476;7.134;2023-05-20T10:22:09;4.63;;;4.23;;
20142;SDS011;10509;46.476;7.134;2023-05-20T10:24:41;4.80;;;4.50;;
20142;SDS011;10509;46.476;7.134;2023-05-20T10:27:08;5.03;;;4.50;;
20142;SDS011;10509;46.476;7.134;2023-05-20T10:29:41;4.30;;;4.00;;
20142;SDS011;10509;46.476;7.134;2023-05-20T10:32:07;4.70;;;4.40;;
20142;SDS011;10509;46.476;7.134;2023-05-20T10:34:43;4.53;;;4.07;;
20142;SDS011;10509;46.476;7.134;2023-05-20T10:37:19;4.30;;;3.90;;
20142;SDS011;10509;46.476;7.134;2023-05-20T10:39:45;4.40;;;3.97;;
20142;SDS011;10509;46.476;7.134;2023-05-20T10:42:11;4.67;;;4.37;;
20142;SDS011;10509;46.476;7.134;2023-05-20T10:44:41;4.40;;;4.10;;
20142;SDS011;10509;46.476;7.134;2023-05-20T10:47:07;4.63;;;4.23;;
20142;SDS011;10509;46.476;7.134;2023-05-20T10:49:33;4.53;;;4.23;;
20142;SDS011;10509;46.476;7.134;2023-05-20T10:52:02;5.00;;;4.70;;
20142;SDS011;10509;46.476;7.134;2023-05-20T10:54:33;5.50;;;5.10;;
20142;SDS011;10509;46.476;7.134;2023-05-20T10:57:00;5.10;;;4.50;;
20142;SDS011;10509;46.476;7.134;2023-05-20T10:59:31;5.40;;;5.00;;
20142;SDS011;10509;46.476;7.134;2023-05-20T11:01:58;5.10;;;4.70;;
20142;SDS011;10509;46.476;7.134;2023-05-20T11:04:24;5.00;;;4.70;;
20142;SDS011;10509;46.476;7.134;2023-05-20T11:06:51;5.10;;;4.77;;
20142;SDS011;10509;46.476;7.134;2023-05-20T11:09:17;5.60;;;5.20;;
20142;SDS011;10509;46.476;7.134;2023-05-20T11:11:43;5.93;;;5.53;;
20142;SDS011;10509;46.476;7.134;2023-05-20T11:14:10;5.37;;;5.07;;
20142;SDS011;10509;46.476;7.134;2023-05-20T11:16:38;5.93;;;5.53;;
20142;SDS011;10509;46.476;7.134;2023-05-20T11:19:08;5.23;;;4.83;;
20142;SDS011;10509;46.476;7.134;2023-05-20T11:21:34;4.77;;;4.47;;
20142;SDS011;10509;46.476;7.134;2023-05-20T11:24:07;7.90;;;5.20;;
20142;SDS011;10509;46.476;7.134;2023-05-20T11:26:33;5.40;;;5.10;;
20142;SDS011;10509;46.476;7.134;2023-05-20T11:28:59;6.63;;;5.97;;
20142;SDS011;10509;46.476;7.134;2023-05-20T11:31:25;6.33;;;5.83;;
20142;SDS011;10509;46.476;7.134;2023-05-20T11:33:52;4.93;;;4.63;;
20142;SDS011;10509;46.476;7.134;2023-05-20T11:36:18;5.67;;;5.17;;
20142;SDS011;10509;46.476;7.134;2023-05-20T11:38:47;5.13;;;4.83;;
20142;SDS011;10509;46.476;7.134;2023-05-20T11:41:13;5.70;;;5.40;;
20142;SDS011;10509;46.476;7.134;2023-05-20T11:43:39;5.20;;;4.90;;
20142;SDS011;10509;46.476;7.134;2023-05-20T11:46:06;5.33;;;5.03;;
20142;SDS011;10509;46.476;7.134;2023-05-20T11:48:32;5.77;;;5.37;;
20142;SDS011;10509;46.476;7.134;2023-05-20T11:50:58;5.57;;;5.27;;
20142;SDS011;10509;46.476;7.134;2023-05-20T11:53:24;5.80;;;5.20;;
20142;SDS011;10509;46.476;7.134;2023-05-20T11:55:57;5.23;;;4.83;;
20142;SDS011;10509;46.476;7.134;2023-05-20T11:58:25;5.33;;;4.93;;
20142;SDS011;10509;46.476;7.134;2023-05-20T12:00:51;5.50;;;5.20;;
20142;SDS011;10509;46.476;7.134;2023-05-20T12:03:17;6.80;;;5.20;;
20142;SDS011;10509;46.476;7.134;2023-05-20T12:05:44;5.30;;;4.83;;
20142;SDS011;10509;46.476;7.134;2023-05-20T12:08:11;4.80;;;4.50;;
20142;SDS011;10509;46.476;7.134;2023-05-20T12:10:37;5.10;;;4.70;;
20142;SDS011;10509;46.476;7.134;2023-05-20T12:13:04;4.90;;;4.50;;
20142;SDS011;10509;46.476;7.134;2023-05-20T12:15:33;5.53;;;5.13;;
20142;SDS011;10509;46.476;7.134;2023-05-20T12:18:00;5.10;;;4.80;;
20142;SDS011;10509;46.476;7.134;2023-05-20T12:20:26;5.43;;;5.03;;
20142;SDS011;10509;46.476;7.134;2023-05-20T12:22:52;5.30;;;5.00;;
20142;SDS011;10509;46.476;7.134;2023-05-20T12:25:19;5.43;;;5.00;;
20142;SDS011;10509;46.476;7.134;2023-05-20T12:27:46;5.60;;;5.30;;
20142;SDS011;10509;46.476;7.134;2023-05-20T12:30:16;5.70;;;5.40;;
20142;SDS011;10509;46.476;7.134;2023-05-20T12:32:43;6.20;;;5.70;;
20142;SDS011;10509;46.476;7.134;2023-05-20T12:35:09;6.47;;;5.97;;
20142;SDS011;10509;46.476;7.134;2023-05-20T12:37:39;5.60;;;5.30;;
20142;SDS011;10509;46.476;7.134;2023-05-20T12:40:06;5.87;;;5.47;;
20142;SDS011;10509;46.476;7.134;2023-05-20T12:42:38;5.73;;;5.40;;
20142;SDS011;10509;46.476;7.134;2023-05-20T12:45:05;5.80;;;5.33;;
20142;SDS011;10509;46.476;7.134;2023-05-20T12:47:31;7.43;;;6.20;;
20142;SDS011;10509;46.476;7.134;2023-05-20T12:49:58;5.73;;;5.30;;
20142;SDS011;10509;46.476;7.134;2023-05-20T12:52:24;6.20;;;5.80;;
20142;SDS011;10509;46.476;7.134;2023-05-20T12:54:52;6.57;;;6.17;;
20142;SDS011;10509;46.476;7.134;2023-05-20T12:57:18;6.40;;;5.87;;
20142;SDS011;10509;46.476;7.134;2023-05-20T12:59:44;6.37;;;5.60;;
20142;SDS011;10509;46.476;7.134;2023-05-20T13:02:10;6.30;;;5.90;;
20142;SDS011;10509;46.476;7.134;2023-05-20T13:04:36;6.70;;;6.23;;
20142;SDS011;10509;46.476;7.134;2023-05-20T13:07:02;6.27;;;5.87;;
20142;SDS011;10509;46.476;7.134;2023-05-20T13:09:28;6.30;;;5.90;;
20142;SDS011;10509;46.476;7.134;2023-05-20T13:11:54;6.60;;;6.07;;
20142;SDS011;10509;46.476;7.134;2023-05-20T13:14:20;6.10;;;5.70;;
20142;SDS011;10509;46.476;7.134;2023-05-20T13:16:48;6.77;;;6.37;;
20142;SDS011;10509;46.476;7.134;2023-05-20T13:19:18;6.93;;;6.33;;
20142;SDS011;10509;46.476;7.134;2023-05-20T13:21:44;6.13;;;5.77;;
20142;SDS011;10509;46.476;7.134;2023-05-20T13:24:10;6.50;;;6.10;;
20142;SDS011;10509;46.476;7.134;2023-05-20T13:26:36;6.60;;;6.20;;
20142;SDS011;10509;46.476;7.134;2023-05-20T13:29:02;6.87;;;6.27;;
20142;SDS011;10509;46.476;7.134;2023-05-20T13:31:28;6.67;;;6.17;;
20142;SDS011;10509;46.476;7.134;2023-05-20T13:33:54;6.23;;;5.83;;
20142;SDS011;10509;46.476;7.134;2023-05-20T13:36:23;6.73;;;6.13;;
20142;SDS011;10509;46.476;7.134;2023-05-20T13:38:49;6.77;;;6.27;;
20142;SDS011;10509;46.476;7.134;2023-05-20T13:41:15;6.97;;;6.40;;
20142;SDS011;10509;46.476;7.134;2023-05-20T13:43:41;6.90;;;6.40;;
20142;SDS011;10509;46.476;7.134;2023-05-20T13:46:07;7.10;;;6.60;;
20142;SDS011;10509;46.476;7.134;2023-05-20T13:48:33;7.33;;;6.50;;
20142;SDS011;10509;46.476;7.134;2023-05-20T13:50:59;7.27;;;6.77;;
20142;SDS011;10509;46.476;7.134;2023-05-20T13:53:26;6.60;;;6.20;;
20142;SDS011;10509;46.476;7.134;2023-05-20T13:55:52;7.10;;;6.50;;
20142;SDS011;10509;46.476;7.134;2023-05-20T13:58:18;6.73;;;6.33;;
20142;SDS011;10509;46.476;7.134;2023-05-20T14:00:44;6.40;;;5.90;;
20142;SDS011;10509;46.476;7.134;2023-05-20T14:03:11;6.67;;;6.27;;
20142;SDS011;10509;46.476;7.134;2023-05-20T14:05:37;6.33;;;5.93;;
20142;SDS011;10509;46.476;7.134;2023-05-20T14:08:04;7.37;;;6.23;;
20142;SDS011;10509;46.476;7.134;2023-05-20T14:10:30;6.67;;;6.27;;
20142;SDS011;10509;46.476;7.134;2023-05-20T14:12:56;6.97;;;6.40;;
20142;SDS011;10509;46.476;7.134;2023-05-20T14:15:24;7.20;;;6.60;;
20142;SDS011;10509;46.476;7.134;2023-05-20T14:17:50;7.17;;;6.57;;
20142;SDS011;10509;46.476;7.134;2023-05-20T14:20:16;7.47;;;7.07;;
20142;SDS011;10509;46.476;7.134;2023-05-20T14:22:42;7.57;;;7.07;;
20142;SDS011;10509;46.476;7.134;2023-05-20T14:25:08;7.10;;;6.70;;
20142;SDS011;10509;46.476;7.134;2023-05-20T14:27:34;6.87;;;6.47;;
20142;SDS011;10509;46.476;7.134;2023-05-20T14:30:00;6.77;;;6.30;;
20142;SDS011;10509;46.476;7.134;2023-05-20T14:32:27;7.60;;;7.10;;
20142;SDS011;10509;46.476;7.134;2023-05-20T14:34:53;7.80;;;7.30;;
20142;SDS011;10509;46.476;7.134;2023-05-20T14:37:19;7.67;;;7.00;;
20142;SDS011;10509;46.476;7.134;2023-05-20T14:39:46;7.60;;;7.10;;
20142;SDS011;10509;46.476;7.134;2023-05-20T14:42:12;7.67;;;7.17;;
20142;SDS011;10509;46.476;7.134;2023-05-20T14:44:38;7.30;;;6.80;;
20142;SDS011;10509;46.476;7.134;2023-05-20T14:47:04;8.03;;;7.53;;
20142;SDS011;10509;46.476;7.134;2023-05-20T14:49:30;7.33;;;6.83;;
20142;SDS011;10509;46.476;7.134;2023-05-20T14:51:56;7.73;;;7.23;;